createdAt,value
2022-10-25T00:01:56.470Z,10.48
2022-10-25T00:04:23.877Z,10.02
2022-10-25T00:06:51.029Z,10.98
2022-10-25T00:09:18.373Z,11.77
2022-10-25T00:11:45.484Z,10.63
2022-10-25T00:14:18.716Z,11.27
2022-10-25T00:16:46.086Z,10.63
2022-10-25T00:19:14.384Z,10.52
2022-10-25T00:21:41.720Z,10.77
2022-10-25T00:24:12.225Z,9.80
2022-10-25T00:26:42.227Z,9.43
2022-10-25T00:29:11.984Z,10.38
2022-10-25T00:31:39.322Z,10.05
2022-10-25T00:34:06.664Z,9.93
2022-10-25T00:36:33.849Z,10.05
2022-10-25T00:39:01.515Z,11.93
2022-10-25T00:41:31.840Z,9.32
2022-10-25T00:44:36.287Z,10.00
2022-10-25T00:47:05.977Z,9.13
2022-10-25T00:49:34.587Z,10.52
2022-10-25T00:52:04.651Z,9.68
2022-10-25T00:54:39.376Z,10.23
2022-10-25T00:57:15.123Z,10.38
2022-10-25T00:59:43.935Z,9.98
2022-10-25T01:02:11.836Z,8.95
2022-10-25T01:04:39.894Z,10.13
2022-10-25T01:07:07.127Z,9.23
2022-10-25T01:09:37.802Z,24.70
2022-10-25T01:12:05.463Z,9.70
2022-10-25T01:14:42.071Z,9.82
2022-10-25T01:17:21.415Z,9.07
2022-10-25T01:20:17.877Z,8.30
2022-10-25T01:23:20.495Z,8.88
2022-10-25T01:25:56.848Z,8.68
2022-10-25T01:29:00.919Z,8.45
2022-10-25T01:31:31.559Z,8.15
2022-10-25T01:34:16.670Z,8.95
2022-10-25T01:37:08.392Z,7.78
2022-10-25T01:39:43.740Z,12.30
2022-10-25T01:42:17.236Z,9.00
2022-10-25T01:44:48.759Z,7.80
2022-10-25T01:50:11.391Z,8.25
2022-10-25T01:52:38.819Z,8.15
2022-10-25T01:55:10.406Z,7.43
2022-10-25T02:00:21.268Z,8.30
2022-10-25T02:03:15.658Z,7.20
2022-10-25T02:05:56.441Z,7.80
2022-10-25T02:08:53.941Z,7.80
2022-10-25T02:11:25.373Z,7.63
2022-10-25T02:14:22.050Z,8.13
2022-10-25T02:17:04.997Z,8.23
2022-10-25T02:19:41.335Z,7.07
2022-10-25T02:22:10.566Z,8.30
2022-10-25T02:24:40.218Z,7.28
2022-10-25T02:27:12.235Z,7.35
2022-10-25T02:29:40.272Z,7.60
2022-10-25T02:32:08.130Z,7.72
2022-10-25T02:34:35.657Z,7.63
2022-10-25T02:37:03.258Z,7.78
2022-10-25T02:39:31.697Z,7.25
2022-10-25T02:42:02.503Z,7.78
2022-10-25T02:44:30.395Z,5.23
2022-10-25T02:46:58.311Z,7.15
2022-10-25T02:49:25.779Z,7.45
2022-10-25T02:51:53.006Z,7.07
2022-10-25T02:54:20.606Z,8.18
2022-10-25T02:56:52.365Z,7.70
2022-10-25T02:59:21.350Z,8.18
2022-10-25T03:01:48.871Z,7.65
2022-10-25T03:04:16.475Z,7.00
2022-10-25T03:06:43.757Z,7.47
2022-10-25T03:09:11.292Z,6.63
2022-10-25T03:11:38.445Z,7.55
2022-10-25T03:14:05.792Z,7.50
2022-10-25T03:16:33.134Z,7.88
2022-10-25T03:19:00.532Z,8.48
2022-10-25T03:21:27.680Z,8.32
2022-10-25T03:23:55.253Z,8.27
2022-10-25T03:26:22.422Z,9.05
2022-10-25T03:28:49.866Z,8.75
2022-10-25T03:31:18.504Z,8.73
2022-10-25T03:33:45.926Z,9.93
2022-10-25T03:36:14.175Z,8.90
2022-10-25T03:38:41.537Z,9.75
2022-10-25T03:41:08.913Z,9.55
2022-10-25T03:43:36.471Z,10.88
2022-10-25T03:46:03.858Z,10.80
2022-10-25T03:48:31.192Z,10.75
2022-10-25T03:50:58.366Z,11.10
2022-10-25T03:53:25.719Z,10.65
2022-10-25T03:55:52.878Z,10.20
2022-10-25T03:58:20.364Z,10.38
2022-10-25T04:00:47.648Z,11.13
2022-10-25T04:03:15.049Z,11.05
2022-10-25T04:05:42.312Z,10.80
2022-10-25T04:08:09.716Z,10.07
2022-10-25T04:10:36.833Z,9.93
2022-10-25T04:13:04.406Z,10.65
2022-10-25T04:15:31.760Z,11.07
2022-10-25T04:17:59.084Z,11.40
2022-10-25T04:20:26.272Z,11.18
2022-10-25T04:22:57.494Z,10.98
2022-10-25T04:25:26.370Z,11.10
2022-10-25T04:27:53.922Z,10.35
2022-10-25T04:30:21.070Z,10.73
2022-10-25T04:32:48.784Z,10.80
2022-10-25T04:35:16.531Z,9.88
2022-10-25T04:37:43.887Z,9.40
2022-10-25T04:40:11.522Z,10.40
2022-10-25T04:42:38.965Z,9.65
2022-10-25T04:45:06.522Z,9.82
2022-10-25T04:47:34.241Z,9.90
2022-10-25T04:50:01.554Z,9.63
2022-10-25T04:52:30.050Z,9.88
2022-10-25T04:54:57.735Z,9.43
2022-10-25T04:57:25.985Z,9.20
2022-10-25T04:59:53.553Z,9.48
2022-10-25T05:02:21.014Z,10.70
2022-10-25T05:04:48.136Z,10.65
2022-10-25T05:07:19.823Z,9.27
2022-10-25T05:09:47.679Z,10.00
2022-10-25T05:12:15.862Z,9.57
2022-10-25T05:14:44.067Z,9.77
2022-10-25T05:17:11.443Z,10.00
2022-10-25T05:19:38.613Z,9.43
2022-10-25T05:22:06.108Z,10.77
2022-10-25T05:24:33.411Z,10.00
2022-10-25T05:27:00.802Z,10.40
2022-10-25T05:29:28.190Z,10.48
2022-10-25T05:31:55.585Z,10.95
2022-10-25T05:34:22.884Z,9.77
2022-10-25T05:36:50.257Z,10.50
2022-10-25T05:39:17.411Z,10.50
2022-10-25T05:41:45.064Z,11.10
2022-10-25T05:44:12.486Z,12.00
2022-10-25T05:46:39.837Z,11.70
2022-10-25T05:49:07.018Z,12.73
2022-10-25T05:51:36.661Z,13.40
2022-10-25T05:54:14.745Z,13.15
2022-10-25T05:56:43.054Z,12.73
2022-10-25T05:59:12.906Z,13.27
2022-10-25T06:01:43.173Z,12.85
2022-10-25T06:04:11.087Z,13.02
2022-10-25T06:06:40.649Z,12.63
2022-10-25T06:09:08.572Z,12.27
2022-10-25T06:11:37.030Z,12.07
2022-10-25T06:14:04.916Z,11.90
2022-10-25T06:16:32.315Z,11.88
2022-10-25T06:18:59.601Z,11.32
2022-10-25T06:21:29.060Z,9.40
2022-10-25T06:23:58.089Z,8.65
2022-10-25T06:26:28.557Z,7.82
2022-10-25T06:28:58.830Z,7.25
2022-10-25T06:31:26.990Z,6.80
2022-10-25T06:33:54.146Z,6.72
2022-10-25T06:36:23.849Z,6.57
2022-10-25T06:38:51.427Z,6.47
2022-10-25T06:41:28.148Z,6.25
2022-10-25T06:43:55.821Z,7.15
2022-10-25T06:46:26.064Z,6.93
2022-10-25T06:48:56.311Z,7.45
2022-10-25T06:51:25.192Z,7.75
2022-10-25T06:54:08.030Z,6.45
2022-10-25T06:56:35.889Z,6.00
2022-10-25T06:59:06.902Z,6.55
2022-10-25T07:01:34.761Z,6.88
2022-10-25T07:04:03.487Z,6.43
2022-10-25T07:06:36.080Z,7.32
2022-10-25T07:09:05.126Z,6.80
2022-10-25T07:11:33.108Z,6.40
2022-10-25T07:14:01.308Z,5.65
2022-10-25T07:16:28.816Z,6.13
2022-10-25T07:19:01.139Z,5.45
2022-10-25T07:21:30.207Z,5.38
2022-10-25T07:23:57.557Z,5.97
2022-10-25T07:26:33.657Z,5.70
2022-10-25T07:29:02.128Z,5.38
2022-10-25T07:31:32.544Z,5.10
2022-10-25T07:34:02.094Z,4.60
2022-10-25T07:36:34.880Z,4.82
2022-10-25T07:39:02.050Z,4.50
2022-10-25T07:41:29.408Z,4.03
2022-10-25T07:43:56.796Z,3.97
2022-10-25T07:46:24.545Z,4.00
2022-10-25T07:48:54.479Z,3.95
2022-10-25T07:51:21.886Z,3.20
2022-10-25T07:53:50.029Z,3.22
2022-10-25T07:56:24.719Z,3.63
2022-10-25T07:58:52.860Z,3.05
2022-10-25T08:01:23.464Z,2.53
2022-10-25T08:03:52.163Z,3.30
2022-10-25T08:06:21.888Z,3.13
2022-10-25T08:08:49.394Z,2.60
2022-10-25T08:11:17.551Z,2.97
2022-10-25T08:13:44.691Z,2.80
2022-10-25T08:16:12.106Z,3.03
2022-10-25T08:18:43.976Z,3.42
2022-10-25T08:21:11.698Z,2.65
2022-10-25T08:23:39.086Z,2.25
2022-10-25T08:26:06.667Z,2.35
2022-10-25T08:28:34.312Z,2.38
2022-10-25T08:31:04.660Z,2.40
2022-10-25T08:33:32.581Z,2.30
2022-10-25T08:36:01.517Z,2.38
2022-10-25T08:38:29.144Z,2.53
2022-10-25T08:41:20.186Z,2.10
2022-10-25T08:44:16.891Z,2.03
2022-10-25T08:47:00.126Z,2.22
2022-10-25T08:49:55.504Z,2.40
2022-10-25T08:52:37.416Z,2.30
2022-10-25T08:55:11.960Z,2.15
2022-10-25T08:57:47.108Z,1.98
2022-10-25T09:00:22.572Z,2.20
2022-10-25T09:02:54.097Z,2.67
2022-10-25T09:05:41.967Z,1.88
2022-10-25T09:10:54.095Z,1.75
2022-10-25T09:13:30.755Z,1.88
2022-10-25T09:16:15.637Z,2.10
2022-10-25T09:18:58.389Z,2.28
2022-10-25T09:21:47.518Z,1.75
2022-10-25T09:24:37.041Z,1.20
2022-10-25T09:27:07.340Z,2.15
2022-10-25T09:29:41.858Z,1.90
2022-10-25T09:32:36.826Z,1.90
2022-10-25T09:35:17.402Z,1.83
2022-10-25T09:38:11.774Z,1.67
2022-10-25T09:40:47.910Z,1.80
2022-10-25T09:43:23.226Z,1.55
2022-10-25T09:46:05.199Z,1.60
2022-10-25T09:48:55.660Z,1.85
2022-10-25T09:51:49.295Z,1.80
2022-10-25T09:54:29.039Z,2.00
2022-10-25T09:56:56.699Z,1.50
2022-10-25T09:59:24.194Z,1.48
2022-10-25T10:01:52.010Z,1.85
2022-10-25T10:04:27.494Z,1.35
2022-10-25T10:07:01.870Z,1.52
2022-10-25T10:09:31.193Z,1.38
2022-10-25T10:12:04.227Z,1.65
2022-10-25T10:14:39.655Z,1.67
2022-10-25T10:17:14.096Z,2.03
2022-10-25T10:19:41.654Z,1.90
2022-10-25T10:22:17.260Z,1.87
2022-10-25T10:24:48.480Z,2.15
2022-10-25T10:27:20.915Z,1.85
2022-10-25T10:29:56.399Z,1.60
2022-10-25T10:32:34.684Z,2.15
2022-10-25T10:35:06.709Z,1.50
2022-10-25T10:37:34.792Z,1.98
2022-10-25T10:40:22.583Z,1.50
2022-10-25T10:42:55.747Z,2.03
2022-10-25T10:45:26.763Z,0.93
2022-10-25T10:47:57.279Z,1.40
2022-10-25T10:50:32.023Z,1.38
2022-10-25T10:53:00.949Z,1.35
2022-10-25T10:55:32.586Z,1.63
2022-10-25T10:58:03.827Z,2.00
2022-10-25T11:00:32.785Z,1.48
2022-10-25T11:03:00.418Z,1.42
2022-10-25T11:05:29.436Z,1.63
2022-10-25T11:08:02.806Z,1.48
2022-10-25T11:10:34.954Z,1.70
2022-10-25T11:13:05.127Z,2.30
2022-10-25T11:15:55.357Z,2.17
2022-10-25T11:18:37.850Z,1.75
2022-10-25T11:21:24.639Z,1.55
2022-10-25T11:24:12.697Z,1.85
2022-10-25T11:26:56.249Z,1.38
2022-10-25T11:29:58.882Z,1.40
2022-10-25T11:32:28.611Z,1.85
2022-10-25T11:35:26.419Z,1.63
2022-10-25T11:38:10.258Z,1.48
2022-10-25T11:40:41.450Z,1.35
2022-10-25T11:43:26.345Z,2.08
2022-10-25T11:46:02.569Z,1.20
2022-10-25T11:48:52.623Z,1.60
2022-10-25T11:51:22.806Z,1.40
2022-10-25T11:54:11.660Z,1.63
2022-10-25T11:56:54.173Z,1.95
2022-10-25T11:59:26.587Z,1.42
2022-10-25T12:02:27.956Z,1.15
2022-10-25T12:05:08.017Z,1.60
2022-10-25T12:07:44.794Z,1.35
2022-10-25T12:10:47.379Z,1.08
2022-10-25T12:13:32.939Z,1.30
2022-10-25T12:16:01.829Z,1.10
2022-10-25T12:18:38.007Z,1.85
2022-10-25T12:21:07.892Z,1.55
2022-10-25T12:23:45.414Z,1.45
2022-10-25T12:26:35.831Z,1.52
2022-10-25T12:29:06.137Z,1.90
2022-10-25T12:31:40.758Z,1.75
2022-10-25T12:34:16.089Z,1.80
2022-10-25T12:37:27.120Z,1.50
2022-10-25T12:39:54.826Z,1.40
2022-10-25T12:42:27.982Z,2.10
2022-10-25T12:45:04.348Z,2.15
2022-10-25T12:47:48.820Z,1.33
2022-10-25T12:50:42.422Z,1.80
2022-10-25T12:53:30.924Z,1.45
2022-10-25T12:56:19.713Z,2.08
2022-10-25T12:58:56.438Z,1.30
2022-10-25T13:01:33.065Z,1.60
2022-10-25T13:04:28.172Z,1.13
2022-10-25T13:06:57.481Z,1.50
2022-10-25T13:09:31.464Z,1.27
2022-10-25T13:12:07.804Z,1.15
2022-10-25T13:14:43.537Z,1.35
2022-10-25T13:17:17.106Z,1.67
2022-10-25T13:22:51.115Z,1.20
2022-10-25T13:25:50.113Z,1.73
2022-10-25T13:28:19.913Z,2.30
2022-10-25T13:30:47.174Z,1.52
2022-10-25T13:33:24.564Z,1.63
2022-10-25T13:35:51.661Z,1.55
2022-10-25T13:38:39.117Z,1.60
2022-10-25T13:41:18.687Z,1.25
2022-10-25T13:44:04.360Z,1.50
2022-10-25T13:46:34.152Z,1.50
2022-10-25T13:49:18.882Z,1.42
2022-10-25T13:51:47.172Z,1.20
2022-10-25T13:54:14.633Z,1.00
2022-10-25T13:56:53.667Z,1.45
2022-10-25T14:00:02.827Z,1.55
2022-10-25T14:03:04.479Z,1.67
2022-10-25T14:05:56.777Z,1.60
2022-10-25T14:08:36.411Z,1.55
2022-10-25T14:11:14.501Z,1.05
2022-10-25T14:14:26.119Z,1.88
2022-10-25T14:17:08.559Z,1.42
2022-10-25T14:20:03.087Z,1.77
2022-10-25T14:22:37.427Z,1.80
2022-10-25T14:25:23.202Z,2.25
2022-10-25T14:28:14.270Z,2.22
2022-10-25T14:30:43.647Z,2.05
2022-10-25T14:33:25.164Z,1.88
2022-10-25T14:36:05.357Z,2.53
2022-10-25T14:38:37.798Z,2.38
2022-10-25T14:41:11.880Z,1.80
2022-10-25T14:43:39.682Z,2.67
2022-10-25T14:46:09.771Z,2.15
2022-10-25T14:48:37.379Z,2.42
2022-10-25T14:51:13.330Z,2.90
2022-10-25T14:54:15.545Z,2.33
2022-10-25T14:56:50.923Z,2.72
2022-10-25T14:59:21.341Z,2.80
2022-10-25T15:01:54.645Z,2.80
2022-10-25T15:04:35.715Z,2.90
2022-10-25T15:07:03.570Z,2.92
2022-10-25T15:09:46.937Z,3.35
2022-10-25T15:12:14.063Z,3.47
2022-10-25T15:14:41.831Z,2.13
2022-10-25T15:17:22.527Z,2.92
2022-10-25T15:20:22.663Z,3.20
2022-10-25T15:22:52.206Z,2.97
2022-10-25T15:25:22.947Z,7.00
2022-10-25T15:27:52.571Z,3.25
2022-10-25T15:30:50.094Z,3.30
2022-10-25T15:33:25.923Z,2.80
2022-10-25T15:35:56.701Z,3.38
2022-10-25T15:38:42.337Z,3.00
2022-10-25T15:41:15.576Z,2.55
2022-10-25T15:43:42.850Z,3.50
2022-10-25T15:46:25.317Z,3.17
2022-10-25T15:48:53.215Z,3.35
2022-10-25T15:51:20.844Z,2.92
2022-10-25T15:53:48.065Z,3.40
2022-10-25T15:56:18.529Z,2.92
2022-10-25T15:58:45.779Z,2.60
2022-10-25T16:01:13.862Z,3.10
2022-10-25T16:03:41.331Z,2.67
2022-10-25T16:06:15.709Z,2.42
2022-10-25T16:08:43.720Z,2.53
2022-10-25T16:11:18.094Z,2.83
2022-10-25T16:13:48.809Z,3.40
2022-10-25T16:16:40.260Z,3.88
2022-10-25T16:19:19.642Z,3.33
2022-10-25T16:21:47.909Z,3.90
2022-10-25T16:24:16.459Z,3.95
2022-10-25T16:26:49.697Z,3.83
2022-10-25T16:29:24.158Z,4.78
2022-10-25T16:31:54.891Z,3.50
2022-10-25T16:34:22.905Z,4.57
2022-10-25T16:36:52.558Z,7.03
2022-10-25T16:39:22.827Z,7.65
2022-10-25T16:41:50.354Z,7.00
2022-10-25T16:44:19.545Z,6.57
2022-10-25T16:46:47.105Z,5.82
2022-10-25T16:49:19.498Z,6.15
2022-10-25T16:51:46.934Z,6.47
2022-10-25T16:54:15.613Z,6.38
2022-10-25T16:56:43.215Z,5.88
2022-10-25T16:59:10.419Z,5.38
2022-10-25T17:01:41.198Z,5.72
2022-10-25T17:04:17.123Z,6.03
2022-10-25T17:06:47.289Z,8.85
2022-10-25T17:09:14.523Z,10.40
2022-10-25T17:11:45.645Z,11.48
2022-10-25T17:14:14.378Z,9.90
2022-10-25T17:16:44.162Z,10.45
2022-10-25T17:19:15.585Z,9.25
2022-10-25T17:21:43.417Z,8.82
2022-10-25T17:24:10.623Z,8.02
2022-10-25T17:26:38.734Z,7.57
2022-10-25T17:29:08.690Z,7.28
2022-10-25T17:31:39.057Z,7.63
2022-10-25T17:34:08.788Z,8.75
2022-10-25T17:36:38.234Z,8.15
2022-10-25T17:39:10.035Z,9.00
2022-10-25T17:41:37.813Z,8.88
2022-10-25T17:44:05.025Z,9.57
2022-10-25T17:46:32.802Z,9.60
2022-10-25T17:49:05.833Z,9.57
2022-10-25T17:51:34.735Z,8.88
2022-10-25T17:54:01.904Z,8.95
2022-10-25T17:56:29.352Z,9.65
2022-10-25T17:58:58.733Z,10.07
2022-10-25T18:01:28.109Z,9.50
2022-10-25T18:03:55.695Z,9.27
2022-10-25T18:06:25.970Z,9.05
2022-10-25T18:08:59.076Z,9.55
2022-10-25T18:11:28.429Z,10.07
2022-10-25T18:13:58.931Z,9.60
2022-10-25T18:16:27.708Z,10.13
2022-10-25T18:19:02.847Z,9.65
2022-10-25T18:21:32.040Z,10.60
2022-10-25T18:24:03.217Z,9.75
2022-10-25T18:26:31.254Z,9.07
2022-10-25T18:28:59.061Z,8.70
2022-10-25T18:31:27.287Z,9.30
2022-10-25T18:33:55.484Z,9.50
2022-10-25T18:36:23.159Z,9.40
2022-10-25T18:38:51.161Z,8.68
2022-10-25T18:41:24.737Z,9.13
2022-10-25T18:43:52.475Z,8.73
2022-10-25T18:46:19.878Z,9.30
2022-10-25T18:48:51.616Z,9.32
2022-10-25T18:51:21.156Z,8.55
2022-10-25T18:53:52.554Z,9.10
2022-10-25T18:56:22.055Z,9.13
2022-10-25T18:58:50.004Z,9.43
2022-10-25T19:01:24.522Z,8.65
2022-10-25T19:03:52.203Z,9.52
2022-10-25T19:06:19.633Z,9.63
2022-10-25T19:08:49.248Z,8.82
2022-10-25T19:11:16.785Z,9.05
2022-10-25T19:13:47.565Z,10.18
2022-10-25T19:16:18.130Z,9.95
2022-10-25T19:18:45.298Z,9.32
2022-10-25T19:21:16.794Z,9.40
2022-10-25T19:23:46.278Z,9.48
2022-10-25T19:26:19.716Z,8.65
2022-10-25T19:28:47.576Z,9.75
2022-10-25T19:31:17.190Z,8.88
2022-10-25T19:33:50.138Z,9.75
2022-10-25T19:36:18.453Z,9.13
2022-10-25T19:38:48.829Z,9.10
2022-10-25T19:41:18.897Z,9.48
2022-10-25T19:43:47.141Z,9.18
2022-10-25T19:46:15.310Z,10.57
2022-10-25T19:48:42.479Z,11.15
2022-10-25T19:51:13.809Z,10.27
2022-10-25T19:53:41.088Z,12.05
2022-10-25T19:56:18.986Z,10.80
2022-10-25T19:58:47.555Z,10.70
2022-10-25T20:01:17.880Z,10.30
2022-10-25T20:03:48.607Z,11.15
2022-10-25T20:06:23.341Z,9.67
2022-10-25T20:08:53.029Z,10.25
2022-10-25T20:11:21.501Z,11.27
2022-10-25T20:13:48.713Z,10.82
2022-10-25T20:16:16.074Z,9.98
2022-10-25T20:18:43.474Z,10.35
2022-10-25T20:21:16.990Z,10.80
2022-10-25T20:23:49.387Z,9.32
2022-10-25T20:26:23.814Z,10.23
2022-10-25T20:28:55.442Z,9.77
2022-10-25T20:33:51.910Z,9.02
2022-10-25T20:36:19.650Z,8.25
2022-10-25T20:38:47.477Z,8.35
2022-10-25T20:41:20.633Z,8.00
2022-10-25T20:43:53.497Z,9.07
2022-10-25T20:46:22.940Z,8.32
2022-10-25T20:48:50.675Z,8.80
2022-10-25T20:51:18.401Z,9.07
2022-10-25T20:53:46.499Z,8.30
2022-10-25T20:56:14.816Z,8.60
2022-10-25T20:58:42.088Z,9.25
2022-10-25T21:01:10.198Z,8.88
2022-10-25T21:03:38.521Z,9.32
2022-10-25T21:06:08.058Z,9.88
2022-10-25T21:08:37.542Z,9.68
2022-10-25T21:11:07.433Z,9.13
2022-10-25T21:13:36.252Z,8.60
2022-10-25T21:16:08.873Z,8.63
2022-10-25T21:18:37.338Z,8.57
2022-10-25T21:21:07.630Z,12.70
2022-10-25T21:23:35.462Z,8.40
2022-10-25T21:26:07.795Z,7.80
2022-10-25T21:28:37.693Z,8.30
2022-10-25T21:31:08.088Z,8.40
2022-10-25T21:33:35.634Z,8.13
2022-10-25T21:36:08.835Z,7.35
2022-10-25T21:38:36.707Z,8.77
2022-10-25T21:41:20.609Z,8.40
2022-10-25T21:43:49.941Z,8.40
2022-10-25T21:46:19.720Z,8.23
2022-10-25T21:48:48.093Z,8.43
2022-10-25T21:51:15.543Z,8.23
2022-10-25T21:53:42.962Z,7.70
2022-10-25T21:56:12.658Z,7.38
2022-10-25T21:58:41.626Z,7.95
2022-10-25T22:01:12.400Z,9.20
2022-10-25T22:03:40.516Z,7.68
2022-10-25T22:06:13.782Z,9.07
2022-10-25T22:08:41.747Z,7.47
2022-10-25T22:11:15.449Z,7.57
2022-10-25T22:13:43.076Z,7.45
2022-10-25T22:16:19.024Z,7.65
2022-10-25T22:18:54.902Z,7.10
2022-10-25T22:21:22.311Z,7.10
2022-10-25T22:23:49.931Z,7.90
2022-10-25T22:26:19.496Z,7.03
2022-10-25T22:28:50.893Z,7.38
2022-10-25T22:31:20.085Z,7.68
2022-10-25T22:33:51.821Z,7.03
2022-10-25T22:36:20.265Z,7.47
2022-10-25T22:38:47.614Z,6.78
2022-10-25T22:41:26.536Z,7.55
2022-10-25T22:43:54.085Z,6.57
2022-10-25T22:46:30.915Z,7.70
2022-10-25T22:48:59.828Z,7.75
2022-10-25T22:51:28.239Z,6.60
2022-10-25T22:53:55.483Z,7.47
2022-10-25T22:56:27.625Z,7.20
2022-10-25T22:58:57.560Z,7.25
2022-10-25T23:01:27.550Z,7.25
2022-10-25T23:03:56.715Z,7.20
2022-10-25T23:06:27.089Z,7.20
2022-10-25T23:08:55.655Z,6.30
2022-10-25T23:11:42.391Z,6.82
2022-10-25T23:14:14.701Z,6.90
2022-10-25T23:16:46.224Z,6.60
2022-10-25T23:19:13.457Z,6.15
2022-10-25T23:21:40.888Z,6.18
2022-10-25T23:24:09.431Z,6.03
2022-10-25T23:26:36.957Z,11.15
2022-10-25T23:29:05.129Z,6.00
2022-10-25T23:31:33.024Z,5.43
2022-10-25T23:34:00.603Z,6.40
2022-10-25T23:36:30.502Z,6.75
2022-10-25T23:38:58.310Z,6.07
2022-10-25T23:41:25.866Z,6.82
2022-10-25T23:43:53.179Z,9.38
2022-10-25T23:46:20.552Z,6.40
2022-10-25T23:48:48.070Z,6.30
2022-10-25T23:51:17.662Z,6.85
2022-10-25T23:53:45.680Z,6.50
2022-10-25T23:56:14.032Z,7.20
2022-10-25T23:58:41.862Z,6.20
